Time;durP1;ratioP1;P1;durP2;ratioP2;P2;SDS_P1;SDS_P2;PMS_P1;PMS_P2;Temp;Humidity;BMP_temperature;BMP_pressure;BME280_temperature;BME280_humidity;BME280_pressure;Samples;Min_cycle;Max_cycle;Signal;HPM_P1;HPM_P2
2024/01/09 00:00:38;;;;;;;14.70;9.88;;;;;;;;;;5049125;28;20096;-61
2024/01/09 00:03:04;;;;;;;12.32;7.18;;;;;;;;;;5049203;28;20174;-62
2024/01/09 00:05:30;;;;;;;12.85;7.50;;;;;;;;;;5049248;28;20090;-60
2024/01/09 00:07:56;;;;;;;12.77;7.32;;;;;;;;;;5049078;28;20140;-61
2024/01/09 00:10:22;;;;;;;13.73;7.63;;;;;;;;;;5048443;28;20108;-60
2024/01/09 00:12:48;;;;;;;13.45;7.50;;;;;;;;;;5048937;28;20032;-60
2024/01/09 00:15:14;;;;;;;12.65;7.43;;;;;;;;;;5049328;28;20132;-62
2024/01/09 00:17:42;;;;;;;12.38;7.28;;;;;;;;;;5048014;28;20052;-60
2024/01/09 00:20:08;;;;;;;13.93;8.35;;;;;;;;;;5049109;28;20104;-61
2024/01/09 00:22:34;;;;;;;13.38;7.75;;;;;;;;;;5048878;28;20108;-62
2024/01/09 00:25:00;;;;;;;12.68;7.40;;;;;;;;;;5049115;28;20052;-61
2024/01/09 00:27:26;;;;;;;12.93;7.53;;;;;;;;;;5049091;28;20032;-61
2024/01/09 00:29:52;;;;;;;12.35;7.22;;;;;;;;;;5049157;28;20017;-60
2024/01/09 00:32:18;;;;;;;11.80;6.90;;;;;;;;;;5048595;28;20031;-61
2024/01/09 00:34:44;;;;;;;12.15;7.05;;;;;;;;;;5048794;28;20080;-62
2024/01/09 00:37:10;;;;;;;12.82;7.60;;;;;;;;;;5048027;28;20032;-59
2024/01/09 00:39:36;;;;;;;12.63;7.40;;;;;;;;;;5036065;28;20020;-59
2024/01/09 00:42:02;;;;;;;11.93;7.00;;;;;;;;;;5033724;28;20119;-60
2024/01/09 00:44:28;;;;;;;12.30;7.20;;;;;;;;;;5048717;28;20021;-60
2024/01/09 00:46:54;;;;;;;11.95;7.00;;;;;;;;;;5048661;28;20445;-59
2024/01/09 00:49:19;;;;;;;12.60;7.35;;;;;;;;;;5033971;28;20075;-59
2024/01/09 00:51:46;;;;;;;11.48;6.70;;;;;;;;;;5027963;28;20178;-61
2024/01/09 00:54:12;;;;;;;12.40;7.28;;;;;;;;;;5034162;28;20021;-61
2024/01/09 00:56:38;;;;;;;14.35;7.60;;;;;;;;;;5047405;28;20028;-59
2024/01/09 00:59:04;;;;;;;12.02;7.07;;;;;;;;;;5042700;28;20093;-61
2024/01/09 01:01:30;;;;;;;11.95;6.97;;;;;;;;;;5038061;28;20528;-61
2024/01/09 01:03:56;;;;;;;12.48;7.20;;;;;;;;;;5047968;28;20103;-62
2024/01/09 01:06:22;;;;;;;12.65;7.68;;;;;;;;;;5048227;28;20116;-61
2024/01/09 01:08:48;;;;;;;12.30;7.20;;;;;;;;;;5049278;28;20051;-63
2024/01/09 01:11:14;;;;;;;12.15;7.15;;;;;;;;;;5049018;28;20491;-61
2024/01/09 01:13:40;;;;;;;11.98;7.00;;;;;;;;;;5049081;28;20117;-61
2024/01/09 01:16:06;;;;;;;16.65;8.57;;;;;;;;;;5047830;28;20021;-62
2024/01/09 01:18:32;;;;;;;11.93;7.00;;;;;;;;;;5048991;28;20095;-63
2024/01/09 01:20:58;;;;;;;11.73;6.88;;;;;;;;;;5048551;28;20021;-57
2024/01/09 01:23:24;;;;;;;11.60;6.78;;;;;;;;;;5048969;28;20028;-61
2024/01/09 01:25:50;;;;;;;12.40;7.50;;;;;;;;;;5048895;28;20112;-61
2024/01/09 01:28:16;;;;;;;12.23;7.10;;;;;;;;;;5048890;28;20155;-62
2024/01/09 01:30:42;;;;;;;12.05;6.97;;;;;;;;;;5048974;28;20077;-62
2024/01/09 01:33:08;;;;;;;12.05;7.03;;;;;;;;;;5048625;28;20036;-61
2024/01/09 01:35:34;;;;;;;11.82;6.90;;;;;;;;;;5048973;28;20029;-59
2024/01/09 01:38:00;;;;;;;12.25;7.00;;;;;;;;;;5048925;28;20032;-61
2024/01/09 01:40:26;;;;;;;11.95;6.95;;;;;;;;;;5048854;28;20021;-62
2024/01/09 01:42:51;;;;;;;12.20;7.10;;;;;;;;;;5048836;28;20037;-62
2024/01/09 01:45:22;;;;;;;12.23;7.28;;;;;;;;;;5049126;28;20043;-61
2024/01/09 01:47:48;;;;;;;11.77;6.88;;;;;;;;;;5048834;28;20032;-60
2024/01/09 01:50:15;;;;;;;11.40;6.65;;;;;;;;;;5048771;28;20028;-61
2024/01/09 01:52:45;;;;;;;12.07;7.30;;;;;;;;;;5048377;28;20029;-63
2024/01/09 01:55:12;;;;;;;11.50;6.90;;;;;;;;;;5048847;28;20028;-61
2024/01/09 01:57:39;;;;;;;12.55;7.25;;;;;;;;;;5048715;28;20475;-62
2024/01/09 02:00:05;;;;;;;12.05;7.10;;;;;;;;;;5048851;28;20040;-62
2024/01/09 02:02:31;;;;;;;11.85;6.90;;;;;;;;;;5048247;28;20078;-62
2024/01/09 02:04:58;;;;;;;12.77;8.45;;;;;;;;;;5048422;28;20094;-62
2024/01/09 02:07:24;;;;;;;12.70;7.40;;;;;;;;;;5048460;28;20505;-62
2024/01/09 02:09:53;;;;;;;13.30;8.27;;;;;;;;;;5048341;28;20065;-62
2024/01/09 02:12:20;;;;;;;17.85;13.93;;;;;;;;;;5047953;28;20109;-62
2024/01/09 02:14:46;;;;;;;12.82;7.47;;;;;;;;;;5048222;28;20545;-62
2024/01/09 02:17:13;;;;;;;12.60;7.30;;;;;;;;;;5048460;28;20013;-62
2024/01/09 02:19:39;;;;;;;12.88;7.60;;;;;;;;;;5048248;28;20364;-62
2024/01/09 02:22:05;;;;;;;14.02;9.00;;;;;;;;;;5048273;28;20600;-62
2024/01/09 02:24:31;;;;;;;13.18;7.88;;;;;;;;;;5048471;28;20025;-61
2024/01/09 02:27:12;;;;;;;12.55;7.30;;;;;;;;;;5047072;28;20017;-58
2024/01/09 02:29:47;;;;;;;12.32;7.18;;;;;;;;;;5048433;28;20025;-59
2024/01/09 02:32:14;;;;;;;12.05;7.05;;;;;;;;;;5046517;28;20056;-61
2024/01/09 02:34:40;;;;;;;12.07;7.03;;;;;;;;;;5051393;28;20029;-61
2024/01/09 02:37:06;;;;;;;12.65;7.40;;;;;;;;;;5052264;28;20459;-59
2024/01/09 02:39:32;;;;;;;13.07;7.47;;;;;;;;;;5052082;28;20025;-62
2024/01/09 02:41:58;;;;;;;12.13;7.20;;;;;;;;;;5051808;28;20698;-64
2024/01/09 02:44:24;;;;;;;11.77;6.95;;;;;;;;;;5051981;28;20069;-62
2024/01/09 02:46:50;;;;;;;12.15;7.10;;;;;;;;;;5050812;28;20083;-61
2024/01/09 02:49:16;;;;;;;11.95;7.00;;;;;;;;;;5052011;28;20489;-61
2024/01/09 02:51:42;;;;;;;12.88;7.72;;;;;;;;;;5051617;28;20153;-61
2024/01/09 02:54:08;;;;;;;11.38;6.70;;;;;;;;;;5051834;28;20363;-61
2024/01/09 02:56:36;;;;;;;11.75;7.00;;;;;;;;;;5051965;28;20104;-58
2024/01/09 02:59:03;;;;;;;12.45;7.10;;;;;;;;;;5051934;28;20013;-62
2024/01/09 03:01:29;;;;;;;11.77;6.88;;;;;;;;;;5051526;28;20053;-62
2024/01/09 03:03:54;;;;;;;12.75;7.32;;;;;;;;;;5050315;28;20057;-63
2024/01/09 03:06:20;;;;;;;11.73;6.80;;;;;;;;;;5037481;28;20394;-62
2024/01/09 03:08:48;;;;;;;11.82;6.85;;;;;;;;;;5051067;28;20067;-60
2024/01/09 03:11:14;;;;;;;12.85;7.65;;;;;;;;;;5043024;28;20025;-61
2024/01/09 03:13:40;;;;;;;12.20;7.05;;;;;;;;;;5031072;28;20064;-61
2024/01/09 03:16:13;;;;;;;11.55;6.78;;;;;;;;;;5046513;28;20029;-62
2024/01/09 03:18:39;;;;;;;13.90;9.98;;;;;;;;;;5031020;28;20108;-61
2024/01/09 03:21:05;;;;;;;11.70;6.78;;;;;;;;;;5030774;28;20108;-61
2024/01/09 03:23:34;;;;;;;11.52;6.70;;;;;;;;;;5031071;28;20033;-61
2024/01/09 03:26:00;;;;;;;13.52;8.10;;;;;;;;;;5031014;28;20049;-61
2024/01/09 03:28:27;;;;;;;14.27;7.72;;;;;;;;;;5030995;28;20132;-57
2024/01/09 03:30:53;;;;;;;11.70;6.90;;;;;;;;;;5030482;28;20147;-59
2024/01/09 03:33:19;;;;;;;11.52;6.72;;;;;;;;;;5030643;28;20029;-60
2024/01/09 03:35:45;;;;;;;11.32;6.60;;;;;;;;;;5030722;28;20028;-59
2024/01/09 03:38:11;;;;;;;11.95;7.00;;;;;;;;;;5030871;28;20506;-62
2024/01/09 03:40:37;;;;;;;11.40;6.65;;;;;;;;;;5030435;28;20093;-60
2024/01/09 03:43:05;;;;;;;12.20;6.93;;;;;;;;;;5030533;28;20021;-60
2024/01/09 03:45:32;;;;;;;12.15;6.95;;;;;;;;;;5029532;28;20091;-61
2024/01/09 03:47:58;;;;;;;11.55;6.72;;;;;;;;;;5034974;28;20107;-61
2024/01/09 03:50:23;;;;;;;11.60;6.70;;;;;;;;;;5050250;28;20112;-61
2024/01/09 03:52:49;;;;;;;11.27;6.57;;;;;;;;;;5049891;28;20390;-62
2024/01/09 03:55:16;;;;;;;11.73;6.80;;;;;;;;;;5050195;28;20021;-61
2024/01/09 03:57:42;;;;;;;12.93;7.78;;;;;;;;;;5050015;28;20031;-61
2024/01/09 04:00:08;;;;;;;12.00;7.10;;;;;;;;;;5050335;28;20090;-63
2024/01/09 04:02:35;;;;;;;11.80;6.90;;;;;;;;;;5049645;28;20033;-62
2024/01/09 04:05:01;;;;;;;12.60;7.40;;;;;;;;;;5049986;28;20041;-62
2024/01/09 04:07:27;;;;;;;12.10;7.00;;;;;;;;;;5042560;28;20025;-63
2024/01/09 04:09:53;;;;;;;11.55;6.70;;;;;;;;;;5039066;28;20048;-62
2024/01/09 04:12:19;;;;;;;11.52;6.70;;;;;;;;;;5045821;28;20025;-62
2024/01/09 04:14:45;;;;;;;11.38;6.60;;;;;;;;;;5050175;28;20025;-60
2024/01/09 04:17:11;;;;;;;11.57;6.70;;;;;;;;;;5048951;28;20074;-62
2024/01/09 04:19:40;;;;;;;11.65;6.78;;;;;;;;;;5050020;28;20112;-63
2024/01/09 04:22:06;;;;;;;12.20;6.90;;;;;;;;;;5049751;28;20096;-61
2024/01/09 04:24:33;;;;;;;11.52;6.70;;;;;;;;;;5050098;28;20017;-61
2024/01/09 04:26:59;;;;;;;11.85;6.90;;;;;;;;;;5049810;28;20486;-63
2024/01/09 04:29:25;;;;;;;11.80;6.90;;;;;;;;;;5048669;28;20430;-62
2024/01/09 04:31:51;;;;;;;13.38;7.57;;;;;;;;;;5049675;28;20039;-62
2024/01/09 04:34:18;;;;;;;12.77;7.63;;;;;;;;;;5049926;28;20021;-62
2024/01/09 04:36:44;;;;;;;11.88;7.00;;;;;;;;;;5049866;28;20016;-61
2024/01/09 04:39:09;;;;;;;11.57;6.75;;;;;;;;;;5049959;28;20104;-62
2024/01/09 04:41:35;;;;;;;11.73;6.90;;;;;;;;;;5048115;28;20047;-61
2024/01/09 04:44:02;;;;;;;11.45;6.68;;;;;;;;;;5048695;28;20067;-61
2024/01/09 04:46:28;;;;;;;11.98;6.97;;;;;;;;;;5049683;28;20036;-60
2024/01/09 04:48:54;;;;;;;11.10;6.53;;;;;;;;;;5049393;28;20032;-62
2024/01/09 04:51:20;;;;;;;11.40;6.85;;;;;;;;;;5049076;28;20099;-62
2024/01/09 04:53:46;;;;;;;11.43;6.70;;;;;;;;;;5049375;28;20075;-61
2024/01/09 04:56:12;;;;;;;11.90;7.20;;;;;;;;;;5048910;28;20059;-62
2024/01/09 04:58:38;;;;;;;11.63;6.82;;;;;;;;;;5049364;28;20025;-62
2024/01/09 05:01:05;;;;;;;12.02;7.00;;;;;;;;;;5049088;28;20021;-63
2024/01/09 05:03:31;;;;;;;13.02;7.65;;;;;;;;;;5049064;28;20059;-61
2024/01/09 05:05:57;;;;;;;11.93;7.00;;;;;;;;;;5047974;28;20036;-61
2024/01/09 05:08:23;;;;;;;12.40;7.30;;;;;;;;;;5049337;28;20163;-60
2024/01/09 05:10:49;;;;;;;12.50;7.40;;;;;;;;;;5049098;28;20057;-60
2024/01/09 05:13:15;;;;;;;12.13;7.05;;;;;;;;;;5048821;28;20498;-61
2024/01/09 05:15:41;;;;;;;13.35;8.10;;;;;;;;;;5049084;28;20024;-61
2024/01/09 05:18:07;;;;;;;12.60;7.63;;;;;;;;;;5049179;28;20536;-61
2024/01/09 05:20:33;;;;;;;12.60;7.30;;;;;;;;;;5049110;28;20017;-63
2024/01/09 05:22:59;;;;;;;12.00;7.10;;;;;;;;;;5048909;28;20021;-62
2024/01/09 05:25:25;;;;;;;14.13;8.27;;;;;;;;;;5049028;28;20021;-62
2024/01/09 05:27:51;;;;;;;12.40;7.25;;;;;;;;;;5048912;28;20113;-61
2024/01/09 05:30:17;;;;;;;15.32;7.80;;;;;;;;;;5048838;28;20071;-62
2024/01/09 05:32:43;;;;;;;11.80;7.00;;;;;;;;;;5047271;28;20052;-61
2024/01/09 05:35:10;;;;;;;12.10;7.10;;;;;;;;;;5048752;28;20040;-61
2024/01/09 05:37:36;;;;;;;12.10;7.20;;;;;;;;;;5048851;28;20021;-62
2024/01/09 05:40:03;;;;;;;11.57;6.80;;;;;;;;;;5041760;28;20044;-58
2024/01/09 05:42:29;;;;;;;11.43;6.68;;;;;;;;;;5030661;28;20116;-59
2024/01/09 05:44:55;;;;;;;11.65;6.75;;;;;;;;;;5028452;28;20159;-61
2024/01/09 05:47:21;;;;;;;12.07;7.15;;;;;;;;;;5028395;28;20033;-58
2024/01/09 05:49:47;;;;;;;12.55;7.40;;;;;;;;;;5028711;28;20061;-60
2024/01/09 05:52:13;;;;;;;12.88;7.57;;;;;;;;;;5028033;28;20036;-60
2024/01/09 05:54:44;;;;;;;12.38;7.40;;;;;;;;;;5028328;28;20096;-60
2024/01/09 05:57:10;;;;;;;12.63;7.60;;;;;;;;;;5028465;28;20026;-60
2024/01/09 05:59:36;;;;;;;11.85;6.90;;;;;;;;;;5028318;28;20033;-61
2024/01/09 06:02:02;;;;;;;12.48;7.30;;;;;;;;;;5041216;28;20100;-61
2024/01/09 06:04:28;;;;;;;12.80;7.40;;;;;;;;;;5047836;28;20025;-62
2024/01/09 06:06:54;;;;;;;12.50;7.28;;;;;;;;;;5047777;28;20100;-61
2024/01/09 06:09:20;;;;;;;12.68;7.40;;;;;;;;;;5050857;28;20021;-57
2024/01/09 06:11:47;;;;;;;13.20;7.55;;;;;;;;;;5051600;28;20040;-59
2024/01/09 06:14:13;;;;;;;12.52;7.22;;;;;;;;;;5051705;28;20367;-62
2024/01/09 06:16:39;;;;;;;12.88;7.50;;;;;;;;;;5052229;28;20017;-61
2024/01/09 06:19:05;;;;;;;12.50;7.28;;;;;;;;;;5052369;28;20163;-59
2024/01/09 06:21:31;;;;;;;13.30;8.00;;;;;;;;;;5050123;28;20414;-60
2024/01/09 06:23:58;;;;;;;15.63;8.85;;;;;;;;;;5051796;28;20021;-61
2024/01/09 06:26:24;;;;;;;12.82;7.45;;;;;;;;;;5051764;28;20352;-58
2024/01/09 06:28:50;;;;;;;13.27;7.68;;;;;;;;;;5051219;28;20040;-61
2024/01/09 06:31:16;;;;;;;12.05;7.00;;;;;;;;;;5051331;28;20567;-56
2024/01/09 06:33:42;;;;;;;12.45;7.22;;;;;;;;;;5051583;28;20108;-59
2024/01/09 06:36:08;;;;;;;12.98;8.05;;;;;;;;;;5051575;28;20021;-61
2024/01/09 06:38:34;;;;;;;12.65;7.53;;;;;;;;;;5051623;28;20047;-60
2024/01/09 06:41:00;;;;;;;14.25;8.38;;;;;;;;;;5051262;28;20052;-60
2024/01/09 06:43:26;;;;;;;12.50;7.32;;;;;;;;;;5051493;28;20108;-61
2024/01/09 06:45:52;;;;;;;15.95;8.32;;;;;;;;;;5031296;28;20052;-62
2024/01/09 06:48:18;;;;;;;11.75;6.85;;;;;;;;;;5032139;28;20399;-61
2024/01/09 06:50:44;;;;;;;12.52;7.30;;;;;;;;;;5030931;28;20041;-61
2024/01/09 06:53:10;;;;;;;12.50;7.20;;;;;;;;;;5037386;28;20083;-59
2024/01/09 06:55:36;;;;;;;12.23;7.20;;;;;;;;;;5049348;28;20024;-62
2024/01/09 06:58:04;;;;;;;12.30;7.10;;;;;;;;;;5044988;28;20375;-59
2024/01/09 07:00:31;;;;;;;12.15;7.07;;;;;;;;;;5051049;28;20107;-59
2024/01/09 07:02:57;;;;;;;11.95;6.93;;;;;;;;;;5051111;28;20114;-60
2024/01/09 07:05:23;;;;;;;11.55;6.72;;;;;;;;;;5051253;28;20470;-59
2024/01/09 07:07:49;;;;;;;11.70;6.85;;;;;;;;;;5051438;28;20078;-63
2024/01/09 07:10:15;;;;;;;13.65;8.60;;;;;;;;;;5051251;28;20094;-60
2024/01/09 07:12:41;;;;;;;12.43;7.20;;;;;;;;;;5050711;28;20025;-59
2024/01/09 07:15:08;;;;;;;13.07;7.72;;;;;;;;;;5051455;28;20131;-62
2024/01/09 07:17:35;;;;;;;12.60;7.43;;;;;;;;;;5050378;28;20024;-58
2024/01/09 07:20:01;;;;;;;12.85;7.47;;;;;;;;;;5049871;28;20025;-61
2024/01/09 07:22:27;;;;;;;11.85;6.90;;;;;;;;;;5051124;28;20052;-60
2024/01/09 07:24:53;;;;;;;11.93;6.95;;;;;;;;;;5051162;28;20033;-59
2024/01/09 07:27:19;;;;;;;12.57;7.45;;;;;;;;;;5051284;28;20471;-61
2024/01/09 07:29:45;;;;;;;12.50;7.30;;;;;;;;;;5050990;28;20148;-59
2024/01/09 07:32:11;;;;;;;11.60;6.80;;;;;;;;;;5050553;28;20032;-62
2024/01/09 07:34:37;;;;;;;12.57;7.30;;;;;;;;;;5050602;28;20084;-58
2024/01/09 07:37:03;;;;;;;12.40;7.20;;;;;;;;;;5049480;28;20033;-60
2024/01/09 07:39:29;;;;;;;11.90;6.93;;;;;;;;;;5050977;28;20457;-58
2024/01/09 07:41:55;;;;;;;12.00;7.00;;;;;;;;;;5049539;28;20136;-59
2024/01/09 07:44:21;;;;;;;11.70;6.82;;;;;;;;;;5049837;28;20037;-57
2024/01/09 07:46:47;;;;;;;13.30;7.85;;;;;;;;;;5051182;28;20029;-60
2024/01/09 07:49:13;;;;;;;12.77;7.50;;;;;;;;;;5050927;28;20025;-59
2024/01/09 07:51:39;;;;;;;11.82;6.88;;;;;;;;;;5050779;28;20112;-58
2024/01/09 07:54:05;;;;;;;12.27;7.60;;;;;;;;;;5048174;28;20531;-59
2024/01/09 07:56:31;;;;;;;11.30;6.60;;;;;;;;;;5041467;28;20036;-60
2024/01/09 07:58:57;;;;;;;11.48;6.78;;;;;;;;;;5040815;28;20028;-61
2024/01/09 08:01:24;;;;;;;11.70;6.80;;;;;;;;;;5030742;28;20148;-60
2024/01/09 08:03:50;;;;;;;11.93;6.95;;;;;;;;;;5046120;28;20115;-61
2024/01/09 08:06:16;;;;;;;12.40;7.20;;;;;;;;;;5049468;28;20105;-62
2024/01/09 08:08:43;;;;;;;12.70;7.43;;;;;;;;;;5050524;28;20040;-62
2024/01/09 08:11:09;;;;;;;12.20;7.18;;;;;;;;;;5044977;28;20108;-62
2024/01/09 08:13:37;;;;;;;11.70;6.80;;;;;;;;;;5030211;28;20036;-61
2024/01/09 08:16:03;;;;;;;11.23;6.53;;;;;;;;;;5030352;28;20048;-59
2024/01/09 08:18:29;;;;;;;12.85;8.15;;;;;;;;;;5030458;28;20018;-61
2024/01/09 08:20:56;;;;;;;11.85;6.93;;;;;;;;;;5029837;28;20082;-62
2024/01/09 08:23:24;;;;;;;11.65;6.80;;;;;;;;;;5030143;28;20495;-60
2024/01/09 08:25:50;;;;;;;12.18;7.07;;;;;;;;;;5030079;28;20025;-60
2024/01/09 08:28:16;;;;;;;12.15;7.07;;;;;;;;;;5035216;28;20021;-60
2024/01/09 08:30:42;;;;;;;12.70;8.07;;;;;;;;;;5049232;28;20083;-59
2024/01/09 08:33:08;;;;;;;12.00;6.97;;;;;;;;;;5048562;28;20025;-62
2024/01/09 08:35:34;;;;;;;12.25;7.15;;;;;;;;;;5049921;28;20078;-63
2024/01/09 08:38:00;;;;;;;15.52;9.77;;;;;;;;;;5049800;28;20032;-59
2024/01/09 08:40:26;;;;;;;12.48;7.93;;;;;;;;;;5049688;28;20025;-60
2024/01/09 08:42:52;;;;;;;12.05;7.00;;;;;;;;;;5047660;28;20498;-61
2024/01/09 08:45:18;;;;;;;12.32;7.18;;;;;;;;;;5033531;28;20029;-61
2024/01/09 08:47:44;;;;;;;12.00;7.00;;;;;;;;;;5040233;28;20032;-59
2024/01/09 08:50:10;;;;;;;12.20;7.35;;;;;;;;;;5049049;28;20379;-60
2024/01/09 08:52:37;;;;;;;12.77;7.90;;;;;;;;;;5048842;28;20108;-62
2024/01/09 08:55:04;;;;;;;12.95;7.50;;;;;;;;;;5048939;28;20021;-60
2024/01/09 08:57:30;;;;;;;12.95;7.53;;;;;;;;;;5047920;28;20025;-63
2024/01/09 08:59:57;;;;;;;13.77;8.35;;;;;;;;;;5049130;28;20036;-60
2024/01/09 09:02:24;;;;;;;12.23;7.10;;;;;;;;;;5049055;28;20025;-61
2024/01/09 09:04:50;;;;;;;12.98;7.50;;;;;;;;;;5049186;28;20047;-60
2024/01/09 09:07:18;;;;;;;13.70;9.50;;;;;;;;;;5042963;28;20108;-57
2024/01/09 09:09:44;;;;;;;12.70;7.38;;;;;;;;;;5040953;28;20036;-61
2024/01/09 09:12:10;;;;;;;12.43;7.20;;;;;;;;;;5049012;28;20052;-61
2024/01/09 09:14:36;;;;;;;12.55;7.30;;;;;;;;;;5049059;28;20475;-61
2024/01/09 10:18:22;;;;;;;12.63;7.47;;;;;;;;;;5047293;28;20043;-56
2024/01/09 10:20:48;;;;;;;13.40;8.25;;;;;;;;;;5045103;28;20407;-51
2024/01/09 10:23:15;;;;;;;30.77;12.88;;;;;;;;;;5034230;28;20029;-55
2024/01/09 10:25:41;;;;;;;13.30;7.93;;;;;;;;;;5038900;28;20033;-55
2024/01/09 10:28:08;;;;;;;13.50;8.10;;;;;;;;;;5048404;28;20368;-58
2024/01/09 10:30:35;;;;;;;15.57;9.13;;;;;;;;;;5048186;28;20037;-54
2024/01/09 10:33:01;;;;;;;14.52;9.15;;;;;;;;;;5048371;28;20055;-56
2024/01/09 10:35:27;;;;;;;14.38;10.25;;;;;;;;;;5048154;28;20025;-56
2024/01/09 10:37:53;;;;;;;13.48;8.25;;;;;;;;;;5048254;28;20017;-54
2024/01/09 10:40:25;;;;;;;13.20;7.97;;;;;;;;;;5044994;28;20032;-60
2024/01/09 10:42:51;;;;;;;13.55;8.40;;;;;;;;;;5037638;28;20029;-55
2024/01/09 10:45:19;;;;;;;13.30;8.15;;;;;;;;;;5027790;28;20105;-56
2024/01/09 10:47:45;;;;;;;14.18;7.88;;;;;;;;;;5029990;28;20022;-55
2024/01/09 10:50:11;;;;;;;13.25;7.88;;;;;;;;;;5047685;28;20025;-55
2024/01/09 10:52:37;;;;;;;13.40;8.00;;;;;;;;;;5046798;28;20029;-54
2024/01/09 10:55:06;;;;;;;13.27;7.90;;;;;;;;;;5049866;28;20029;-57
2024/01/09 10:57:32;;;;;;;;;;;;;;;;;;5034461;28;20025;-55
2024/01/09 11:00:00;;;;;;;13.45;8.18;;;;;;;;;;5031519;28;19912;-57
2024/01/09 11:02:27;;;;;;;13.38;8.07;;;;;;;;;;5030975;28;20033;-56
2024/01/09 11:04:53;;;;;;;16.17;11.52;;;;;;;;;;5031262;28;20156;-53
2024/01/09 11:07:19;;;;;;;13.68;8.88;;;;;;;;;;5031194;28;20026;-56
2024/01/09 11:09:46;;;;;;;15.27;9.70;;;;;;;;;;5031851;28;20029;-53
2024/01/09 11:12:20;;;;;;;13.95;9.75;;;;;;;;;;5042417;28;20029;-51
2024/01/09 11:14:49;;;;;;;13.85;9.38;;;;;;;;;;5030770;28;20021;-56
2024/01/09 11:17:15;;;;;;;;;;;;;;;;;;5031932;28;20025;-54
2024/01/09 11:19:41;;;;;;;13.68;8.90;;;;;;;;;;5031180;28;19905;-55
2024/01/09 11:22:19;;;;;;;26.70;18.83;;;;;;;;;;5030759;28;20032;-56
2024/01/09 11:24:47;;;;;;;15.38;9.77;;;;;;;;;;5030987;28;20060;-54
2024/01/09 11:27:13;;;;;;;14.43;9.80;;;;;;;;;;5031019;28;20045;-56
2024/01/09 11:29:49;;;;;;;14.00;9.77;;;;;;;;;;5031312;28;20021;-52
2024/01/09 11:32:16;;;;;;;13.93;9.88;;;;;;;;;;5030605;28;20033;-54
2024/01/09 11:34:48;;;;;;;13.88;9.57;;;;;;;;;;5030617;28;20503;-54
2024/01/09 11:37:15;;;;;;;14.80;10.13;;;;;;;;;;5031083;28;20056;-53
2024/01/09 11:39:41;;;;;;;13.82;9.27;;;;;;;;;;5031207;28;20440;-56
2024/01/09 11:42:17;;;;;;;13.77;9.30;;;;;;;;;;5029378;28;20037;-54
2024/01/09 11:44:43;;;;;;;14.50;10.32;;;;;;;;;;5028096;28;20541;-56
2024/01/09 11:47:09;;;;;;;13.90;9.70;;;;;;;;;;5030467;28;20021;-56
2024/01/09 11:49:35;;;;;;;14.00;9.90;;;;;;;;;;5030806;28;20106;-53
2024/01/09 11:52:01;;;;;;;13.90;9.50;;;;;;;;;;5033759;28;20029;-54
2024/01/09 11:55:04;;;;;;;14.05;9.90;;;;;;;;;;5033562;28;20523;-55
2024/01/09 11:57:30;;;;;;;13.98;9.82;;;;;;;;;;5043450;28;20071;-55
2024/01/09 12:03:00;;;;;;;14.18;10.05;;;;;;;;;;5029850;28;20045;-55
2024/01/09 12:05:26;;;;;;;14.50;9.77;;;;;;;;;;5027752;28;20030;-52
2024/01/09 12:07:52;;;;;;;14.10;10.00;;;;;;;;;;5029041;28;20018;-54
2024/01/09 12:10:18;;;;;;;15.15;10.95;;;;;;;;;;5029302;28;20017;-54
2024/01/09 12:12:44;;;;;;;16.15;10.35;;;;;;;;;;5033407;28;20509;-54
2024/01/09 12:15:19;;;;;;;13.90;9.60;;;;;;;;;;5029802;28;20033;-56
2024/01/09 12:21:07;;;;;;;17.35;10.18;;;;;;;;;;5026910;28;20098;-54
2024/01/09 12:23:33;;;;;;;15.68;10.52;;;;;;;;;;5048376;28;20025;-55
2024/01/09 12:25:59;;;;;;;14.00;9.80;;;;;;;;;;5049597;28;20021;-52
2024/01/09 12:28:25;;;;;;;14.65;11.35;;;;;;;;;;5045834;28;20156;-53
2024/01/09 12:30:52;;;;;;;13.95;9.73;;;;;;;;;;5029290;28;20167;-54
2024/01/09 12:33:18;;;;;;;14.02;9.98;;;;;;;;;;5029308;28;20136;-51
2024/01/09 12:35:48;;;;;;;14.00;9.85;;;;;;;;;;5034777;28;20104;-52
2024/01/09 12:38:14;;;;;;;15.05;10.63;;;;;;;;;;5035099;28;20112;-50
2024/01/09 12:40:40;;;;;;;14.20;10.30;;;;;;;;;;5029026;28;20140;-53
2024/01/09 12:43:10;;;;;;;14.20;10.27;;;;;;;;;;5030420;28;20029;-48
2024/01/09 12:45:38;;;;;;;14.13;10.25;;;;;;;;;;5039474;28;20094;-51
2024/01/09 12:48:09;;;;;;;17.70;15.38;;;;;;;;;;5029576;28;20460;-51
2024/01/09 12:50:35;;;;;;;14.60;10.70;;;;;;;;;;5029561;28;20502;-52
2024/01/09 12:53:02;;;;;;;14.90;11.40;;;;;;;;;;5035161;28;20032;-53
2024/01/09 12:55:29;;;;;;;13.98;9.70;;;;;;;;;;5035527;28;20041;-54
2024/01/09 12:57:55;;;;;;;16.27;13.23;;;;;;;;;;5028854;28;20026;-57
2024/01/09 13:00:21;;;;;;;13.90;9.55;;;;;;;;;;5028995;28;20032;-55
2024/01/09 13:02:47;;;;;;;13.90;9.77;;;;;;;;;;5038911;28;20571;-52
2024/01/09 13:05:14;;;;;;;15.60;10.10;;;;;;;;;;5048825;28;20223;-49
2024/01/09 13:07:39;;;;;;;13.95;9.60;;;;;;;;;;5048899;28;20495;-57
2024/01/09 13:10:06;;;;;;;14.20;10.10;;;;;;;;;;5049051;28;20100;-53
2024/01/09 13:12:32;;;;;;;14.02;9.85;;;;;;;;;;5048356;28;20051;-53
2024/01/09 13:14:58;;;;;;;14.00;9.80;;;;;;;;;;5048083;28;20141;-53
2024/01/09 13:17:24;;;;;;;14.55;9.80;;;;;;;;;;5048474;28;20556;-57
2024/01/09 13:19:52;;;;;;;13.98;9.70;;;;;;;;;;5048598;28;20029;-51
2024/01/09 13:22:17;;;;;;;14.73;10.00;;;;;;;;;;5048290;28;20021;-55
2024/01/09 13:24:44;;;;;;;13.82;9.30;;;;;;;;;;5048542;28;20790;-53
2024/01/09 13:27:10;;;;;;;14.00;9.70;;;;;;;;;;5048553;28;20487;-54
2024/01/09 13:29:36;;;;;;;24.58;12.70;;;;;;;;;;5048622;28;20040;-53
2024/01/09 13:32:02;;;;;;;14.02;9.90;;;;;;;;;;5048274;28;20460;-50
2024/01/09 13:34:28;;;;;;;14.05;9.95;;;;;;;;;;5046803;28;20582;-55
2024/01/09 13:36:55;;;;;;;13.82;9.65;;;;;;;;;;5048342;28;20500;-51
2024/01/09 13:39:23;;;;;;;18.05;16.25;;;;;;;;;;5048185;28;20503;-55
2024/01/09 13:41:49;;;;;;;14.20;10.55;;;;;;;;;;5047955;28;20037;-56
2024/01/09 13:44:16;;;;;;;14.50;10.07;;;;;;;;;;5048427;28;20484;-54
2024/01/09 13:46:42;;;;;;;13.93;9.70;;;;;;;;;;5048632;28;20386;-55
2024/01/09 13:49:08;;;;;;;13.95;9.52;;;;;;;;;;5048422;28;20156;-56
2024/01/09 13:51:34;;;;;;;14.20;10.07;;;;;;;;;;5048150;28;20056;-53
2024/01/09 13:54:01;;;;;;;13.93;9.60;;;;;;;;;;5048407;28;20035;-51
2024/01/09 13:56:30;;;;;;;14.30;9.68;;;;;;;;;;5048009;28;20016;-51
2024/01/09 13:58:56;;;;;;;13.88;9.48;;;;;;;;;;5048403;28;20028;-54
2024/01/09 14:01:22;;;;;;;13.93;9.63;;;;;;;;;;5048027;28;20025;-54
2024/01/09 14:03:47;;;;;;;14.13;9.77;;;;;;;;;;5063817;28;20031;-51
2024/01/09 14:06:15;;;;;;;14.00;9.90;;;;;;;;;;5063535;28;20029;-53
2024/01/09 14:08:41;;;;;;;13.98;9.75;;;;;;;;;;5048206;28;20426;-54
2024/01/09 14:11:07;;;;;;;16.80;12.60;;;;;;;;;;5047477;28;20052;-54
2024/01/09 14:13:33;;;;;;;13.98;9.82;;;;;;;;;;5036396;28;20084;-52
2024/01/09 14:15:59;;;;;;;15.05;11.30;;;;;;;;;;5028461;28;20053;-53
2024/01/09 14:18:25;;;;;;;14.20;10.07;;;;;;;;;;5028287;28;20450;-56
2024/01/09 14:20:51;;;;;;;13.98;9.77;;;;;;;;;;5027678;28;20037;-53
2024/01/09 14:23:17;;;;;;;13.90;9.45;;;;;;;;;;5027430;28;20037;-56
2024/01/09 14:25:43;;;;;;;13.80;9.20;;;;;;;;;;5027039;28;20025;-51
2024/01/09 14:28:09;;;;;;;13.77;9.25;;;;;;;;;;5028206;28;20021;-56
2024/01/09 14:30:35;;;;;;;14.93;10.00;;;;;;;;;;5030940;28;20632;-50
2024/01/09 14:33:01;;;;;;;14.35;10.10;;;;;;;;;;5031407;28;20022;-51
2024/01/09 14:35:27;;;;;;;13.82;9.30;;;;;;;;;;5031759;28;20064;-54
2024/01/09 14:37:53;;;;;;;14.23;10.35;;;;;;;;;;5031905;28;20495;-52
2024/01/09 14:40:20;;;;;;;13.90;9.55;;;;;;;;;;5031479;28;20029;-52
2024/01/09 14:42:46;;;;;;;13.88;9.30;;;;;;;;;;5031326;28;20525;-53
2024/01/09 14:45:12;;;;;;;14.07;9.60;;;;;;;;;;5031436;28;20036;-49
2024/01/09 14:47:38;;;;;;;14.10;10.10;;;;;;;;;;5031744;28;20034;-56
2024/01/09 14:50:05;;;;;;;14.00;9.88;;;;;;;;;;5034999;28;20030;-51
2024/01/09 14:52:31;;;;;;;17.48;12.95;;;;;;;;;;5041616;28;20079;-52
2024/01/09 14:54:57;;;;;;;14.10;9.60;;;;;;;;;;5043159;28;20049;-54
2024/01/09 14:57:23;;;;;;;14.10;9.90;;;;;;;;;;5040631;28;20542;-51
2024/01/09 14:59:49;;;;;;;14.13;10.05;;;;;;;;;;5041965;28;20029;-55
2024/01/09 15:02:15;;;;;;;14.00;9.60;;;;;;;;;;5050678;28;20029;-54
2024/01/09 15:04:42;;;;;;;15.00;10.25;;;;;;;;;;5050365;28;20119;-54
2024/01/09 15:07:08;;;;;;;14.07;10.00;;;;;;;;;;5051167;28;20032;-54
2024/01/09 15:09:34;;;;;;;15.43;9.90;;;;;;;;;;5044246;28;20444;-57
2024/01/09 15:12:00;;;;;;;13.90;9.40;;;;;;;;;;5039152;28;20096;-54
2024/01/09 15:14:26;;;;;;;13.80;9.10;;;;;;;;;;5051044;28;20173;-54
2024/01/09 15:16:53;;;;;;;14.10;10.00;;;;;;;;;;5051032;28;20021;-51
2024/01/09 15:19:19;;;;;;;13.82;9.20;;;;;;;;;;5050729;28;20138;-51
2024/01/09 15:21:45;;;;;;;13.60;8.70;;;;;;;;;;5050426;28;20051;-52
2024/01/09 15:24:11;;;;;;;15.45;9.40;;;;;;;;;;5050398;28;20033;-54
2024/01/09 15:26:40;;;;;;;13.80;8.80;;;;;;;;;;5050736;28;20021;-51
2024/01/09 15:29:09;;;;;;;13.52;8.65;;;;;;;;;;5050139;28;20070;-55
2024/01/09 15:31:37;;;;;;;13.65;8.80;;;;;;;;;;5050012;28;20036;-50